createdAt,value
2023-04-23T00:00:00.418Z,13.82
2023-04-23T00:01:35.611Z,13.83
2023-04-23T00:03:10.335Z,13.81
2023-04-23T00:04:51.690Z,13.78
2023-04-23T00:06:26.927Z,13.76
2023-04-23T00:08:00.857Z,13.75
2023-04-23T00:09:33.408Z,13.75
2023-04-23T00:11:05.513Z,13.73
2023-04-23T00:12:37.621Z,13.75
2023-04-23T00:14:09.710Z,13.71
2023-04-23T00:15:41.912Z,13.71
2023-04-23T00:17:13.799Z,13.69
2023-04-23T00:18:45.672Z,13.68
2023-04-23T00:20:17.894Z,13.68
2023-04-23T00:21:49.742Z,13.67
2023-04-23T00:23:21.627Z,13.66
2023-04-23T00:24:53.813Z,13.65
2023-04-23T00:26:26.027Z,13.64
2023-04-23T00:27:57.843Z,13.63
2023-04-23T00:29:29.886Z,13.63
2023-04-23T00:31:01.814Z,13.61
2023-04-23T00:32:34.039Z,13.62
2023-04-23T00:34:06.046Z,13.61
2023-04-23T00:35:37.879Z,13.59
2023-04-23T00:37:09.793Z,13.57
2023-04-23T00:38:41.761Z,13.55
2023-04-23T00:40:15.615Z,13.53
2023-04-23T00:41:48.488Z,13.49
2023-04-23T00:43:20.891Z,13.46
2023-04-23T00:44:52.809Z,13.44
2023-04-23T00:46:26.647Z,13.40
2023-04-23T00:47:59.068Z,13.38
2023-04-23T00:49:31.733Z,13.33
2023-04-23T00:51:05.201Z,13.30
2023-04-23T00:52:39.237Z,13.26
2023-04-23T00:54:11.429Z,13.21
2023-04-23T00:55:43.626Z,13.18
2023-04-23T00:57:15.738Z,13.14
2023-04-23T00:58:47.746Z,13.11
2023-04-23T01:00:20.567Z,13.06
2023-04-23T01:01:54.140Z,13.00
2023-04-23T01:03:27.212Z,12.96
2023-04-23T01:05:01.808Z,12.95
2023-04-23T01:06:33.808Z,12.92
2023-04-23T01:08:06.520Z,12.90
2023-04-23T01:09:39.065Z,12.90
2023-04-23T01:11:14.920Z,12.87
2023-04-23T01:12:48.052Z,12.88
2023-04-23T01:14:19.891Z,12.86
2023-04-23T01:15:51.765Z,12.85
2023-04-23T01:17:23.671Z,12.83
2023-04-23T01:18:56.967Z,12.83
2023-04-23T01:20:28.830Z,12.82
2023-04-23T01:22:02.566Z,12.82
2023-04-23T01:23:34.538Z,12.81
2023-04-23T01:25:08.338Z,12.81
2023-04-23T01:26:40.921Z,12.82
2023-04-23T01:28:13.577Z,12.80
2023-04-23T01:29:47.360Z,12.80
2023-04-23T01:31:19.329Z,12.79
2023-04-23T01:32:51.855Z,12.81
2023-04-23T01:34:24.289Z,12.81
2023-04-23T01:35:57.885Z,12.79
2023-04-23T01:37:30.685Z,12.80
2023-04-23T01:39:02.534Z,12.79
2023-04-23T01:40:34.546Z,12.75
2023-04-23T01:42:07.464Z,12.74
2023-04-23T01:43:41.962Z,12.73
2023-04-23T01:45:14.097Z,12.71
2023-04-23T01:46:46.090Z,12.67
2023-04-23T01:48:19.667Z,12.64
2023-04-23T01:49:51.580Z,12.62
2023-04-23T01:51:25.448Z,12.57
2023-04-23T01:52:57.351Z,12.54
2023-04-23T01:54:29.286Z,12.49
2023-04-23T01:56:02.515Z,12.44
2023-04-23T01:57:34.883Z,12.40
2023-04-23T01:59:07.544Z,12.35
2023-04-23T02:00:39.366Z,12.33
2023-04-23T02:02:14.061Z,12.29
2023-04-23T02:03:46.843Z,12.24
2023-04-23T02:05:19.872Z,12.22
2023-04-23T02:06:51.975Z,12.17
2023-04-23T02:08:24.136Z,12.14
2023-04-23T02:09:56.738Z,12.09
2023-04-23T02:11:28.622Z,12.03
2023-04-23T02:13:01.804Z,12.00
2023-04-23T02:14:33.721Z,11.94
2023-04-23T02:16:06.025Z,11.91
2023-04-23T02:17:40.174Z,11.85
2023-04-23T02:19:14.082Z,11.79
2023-04-23T02:20:47.719Z,11.73
2023-04-23T02:22:19.617Z,11.70
2023-04-23T02:23:51.669Z,11.67
2023-04-23T02:25:23.750Z,11.64
2023-04-23T02:26:55.788Z,11.60
2023-04-23T02:28:27.606Z,11.56
2023-04-23T02:29:59.599Z,11.57
2023-04-23T02:31:31.590Z,11.61
2023-04-23T02:33:04.119Z,11.66
2023-04-23T02:34:35.957Z,11.72
2023-04-23T02:36:08.561Z,11.77
2023-04-23T02:37:40.636Z,11.86
2023-04-23T02:39:12.495Z,11.93
2023-04-23T02:40:44.376Z,12.02
2023-04-23T02:42:16.281Z,12.10
2023-04-23T02:43:48.069Z,12.16
2023-04-23T02:45:19.959Z,12.23
2023-04-23T02:46:52.939Z,12.28
2023-04-23T02:48:26.309Z,12.32
2023-04-23T02:49:58.436Z,12.37
2023-04-23T02:51:31.349Z,12.41
2023-04-23T02:53:03.356Z,12.46
2023-04-23T02:54:37.278Z,12.49
2023-04-23T02:56:09.549Z,12.53
2023-04-23T02:57:41.460Z,12.57
2023-04-23T02:59:13.452Z,12.56
2023-04-23T03:00:45.453Z,12.60
2023-04-23T03:02:17.392Z,12.64
2023-04-23T03:03:49.563Z,12.67
2023-04-23T03:05:21.767Z,12.70
2023-04-23T03:06:53.650Z,12.74
2023-04-23T03:08:25.648Z,12.79
2023-04-23T03:09:57.601Z,12.81
2023-04-23T03:11:29.877Z,12.84
2023-04-23T03:13:02.215Z,12.87
2023-04-23T03:14:34.261Z,12.89
2023-04-23T03:16:06.719Z,12.89
2023-04-23T03:17:39.197Z,12.90
2023-04-23T03:19:11.805Z,12.88
2023-04-23T03:20:44.639Z,12.90
2023-04-23T03:22:16.509Z,12.89
2023-04-23T03:23:48.342Z,12.89
2023-04-23T03:25:22.606Z,12.89
2023-04-23T03:26:54.461Z,12.89
2023-04-23T03:28:26.630Z,12.88
2023-04-23T03:29:58.441Z,12.94
2023-04-23T03:31:30.430Z,12.95
2023-04-23T03:33:03.089Z,12.94
2023-04-23T03:34:35.106Z,12.93
2023-04-23T03:36:07.418Z,12.93
2023-04-23T03:37:39.247Z,12.95
2023-04-23T03:39:11.465Z,12.96
2023-04-23T03:40:55.464Z,12.97
2023-04-23T03:42:27.338Z,12.97
2023-04-23T03:43:59.584Z,12.98
2023-04-23T03:45:45.815Z,13.00
2023-04-23T03:47:17.694Z,13.04
2023-04-23T03:48:49.960Z,13.04
2023-04-23T03:50:29.811Z,13.06
2023-04-23T03:52:14.023Z,13.07
2023-04-23T03:53:46.758Z,13.06
2023-04-23T03:55:37.205Z,13.05
2023-04-23T03:57:09.726Z,13.04
2023-04-23T03:58:47.606Z,13.04
2023-04-23T04:00:19.479Z,13.05
2023-04-23T04:01:51.472Z,13.05
2023-04-23T04:03:23.776Z,13.06
2023-04-23T04:04:56.739Z,13.04
2023-04-23T04:06:29.605Z,13.04
2023-04-23T04:08:02.016Z,13.02
2023-04-23T04:09:35.175Z,13.01
2023-04-23T04:11:07.055Z,13.01
2023-04-23T04:12:40.018Z,12.98
2023-04-23T04:14:14.538Z,12.97
2023-04-23T04:15:46.447Z,12.95
2023-04-23T04:17:18.397Z,12.92
2023-04-23T04:18:50.211Z,12.90
2023-04-23T04:20:24.322Z,12.88
2023-04-23T04:21:56.362Z,12.85
2023-04-23T04:23:28.870Z,12.85
2023-04-23T04:25:00.745Z,12.84
2023-04-23T04:26:34.559Z,12.83
2023-04-23T04:28:08.456Z,12.79
2023-04-23T04:29:41.099Z,12.77
2023-04-23T04:31:14.660Z,12.74
2023-04-23T04:32:47.489Z,12.73
2023-04-23T04:34:19.340Z,12.69
2023-04-23T04:35:51.240Z,12.70
2023-04-23T04:37:23.421Z,12.68
2023-04-23T04:38:58.417Z,12.67
2023-04-23T04:40:30.636Z,12.65
2023-04-23T04:42:05.121Z,12.66
2023-04-23T04:43:37.934Z,12.66
2023-04-23T04:45:10.719Z,12.68
2023-04-23T04:46:43.202Z,12.68
2023-04-23T04:48:15.053Z,12.69
2023-04-23T04:49:47.016Z,12.68
2023-04-23T04:51:18.821Z,12.70
2023-04-23T04:52:50.685Z,12.76
2023-04-23T04:54:22.482Z,12.76
2023-04-23T04:55:54.332Z,12.81
2023-04-23T04:57:26.143Z,12.84
2023-04-23T04:58:57.998Z,12.88
2023-04-23T05:00:30.329Z,12.93
2023-04-23T05:02:02.211Z,12.99
2023-04-23T05:03:34.236Z,13.04
2023-04-23T05:05:06.847Z,13.09
2023-04-23T05:06:38.648Z,13.13
2023-04-23T05:08:10.641Z,13.19
2023-04-23T05:09:44.899Z,13.27
2023-04-23T05:11:19.113Z,13.34
2023-04-23T05:12:52.105Z,13.40
2023-04-23T05:14:26.200Z,13.48
2023-04-23T05:15:58.051Z,13.55
2023-04-23T05:17:29.882Z,13.63
2023-04-23T05:19:01.704Z,13.68
2023-04-23T05:20:33.985Z,13.79
2023-04-23T05:22:06.114Z,13.86
2023-04-23T05:23:37.930Z,13.93
2023-04-23T05:25:12.269Z,14.03
2023-04-23T05:26:44.111Z,14.11
2023-04-23T05:28:16.158Z,14.18
2023-04-23T05:29:48.007Z,14.27
2023-04-23T05:31:20.279Z,14.32
2023-04-23T05:32:52.234Z,14.38
2023-04-23T05:34:24.378Z,14.44
2023-04-23T05:35:57.479Z,14.50
2023-04-23T05:37:29.778Z,14.56
2023-04-23T05:39:01.578Z,14.61
2023-04-23T05:40:33.572Z,14.65
2023-04-23T05:42:06.026Z,14.67
2023-04-23T05:43:37.833Z,14.68
2023-04-23T05:45:10.212Z,14.69
2023-04-23T05:46:42.099Z,14.70
2023-04-23T05:48:14.059Z,14.73
2023-04-23T05:49:45.877Z,14.76
2023-04-23T05:51:18.009Z,14.80
2023-04-23T05:52:49.802Z,14.84
2023-04-23T05:54:21.851Z,14.90
2023-04-23T05:55:53.692Z,14.99
2023-04-23T05:57:25.630Z,15.08
2023-04-23T05:58:57.426Z,15.20
2023-04-23T06:00:29.348Z,15.33
2023-04-23T06:02:01.326Z,15.50
2023-04-23T06:03:33.400Z,15.68
2023-04-23T06:05:06.450Z,15.87
2023-04-23T06:06:38.376Z,16.08
2023-04-23T06:08:10.239Z,16.24
2023-04-23T06:09:42.209Z,16.43
2023-04-23T06:11:14.046Z,16.58
2023-04-23T06:12:45.855Z,16.70
2023-04-23T06:14:17.669Z,16.83
2023-04-23T06:15:49.540Z,16.94
2023-04-23T06:17:21.389Z,17.04
2023-04-23T06:18:54.292Z,17.13
2023-04-23T06:20:26.349Z,17.20
2023-04-23T06:21:58.179Z,17.28
2023-04-23T06:23:34.391Z,17.35
2023-04-23T06:25:06.631Z,17.40
2023-04-23T06:26:38.731Z,17.47
2023-04-23T06:28:17.356Z,17.51
2023-04-23T06:30:08.654Z,17.56
2023-04-23T06:31:42.109Z,17.58
2023-04-23T06:33:14.455Z,17.57
2023-04-23T06:34:57.512Z,17.57
2023-04-23T06:36:32.628Z,17.60
2023-04-23T06:38:04.448Z,17.62
2023-04-23T06:39:36.270Z,17.64
2023-04-23T06:41:08.134Z,17.69
2023-04-23T06:42:39.989Z,17.73
2023-04-23T06:44:34.947Z,17.78
2023-04-23T06:46:08.160Z,17.84
2023-04-23T06:47:39.998Z,17.87
2023-04-23T06:49:12.434Z,17.92
2023-04-23T06:50:45.026Z,17.97
2023-04-23T06:52:16.876Z,18.01
2023-04-23T06:53:48.673Z,18.04
2023-04-23T06:55:22.237Z,18.09
2023-04-23T06:56:54.169Z,18.14
2023-04-23T06:58:31.378Z,18.19
2023-04-23T07:00:03.611Z,18.21
2023-04-23T07:01:41.217Z,18.25
2023-04-23T07:03:13.239Z,18.27
2023-04-23T07:04:46.041Z,18.26
2023-04-23T07:06:18.348Z,18.27
2023-04-23T07:07:50.250Z,18.27
2023-04-23T07:09:23.340Z,18.25
2023-04-23T07:10:55.180Z,18.24
2023-04-23T07:12:27.002Z,18.24
2023-04-23T07:13:58.888Z,18.24
2023-04-23T07:15:31.051Z,18.24
2023-04-23T07:17:03.197Z,18.26
2023-04-23T07:18:35.022Z,18.28
2023-04-23T07:20:08.844Z,18.28
2023-04-23T07:21:40.706Z,18.29
2023-04-23T07:23:12.523Z,18.29
2023-04-23T07:24:44.450Z,18.30
2023-04-23T07:26:16.465Z,18.28
2023-04-23T07:27:48.298Z,18.27
2023-04-23T07:29:20.696Z,18.28
2023-04-23T07:30:52.477Z,18.26
2023-04-23T07:32:28.183Z,18.23
2023-04-23T07:34:00.201Z,18.21
2023-04-23T07:35:31.982Z,18.20
2023-04-23T07:37:04.514Z,18.18
2023-04-23T07:38:36.312Z,18.15
2023-04-23T07:40:09.343Z,18.12
2023-04-23T07:41:41.236Z,18.12
2023-04-23T07:43:14.250Z,18.09
2023-04-23T07:44:46.071Z,18.08
2023-04-23T07:46:17.970Z,18.06
2023-04-23T07:47:50.433Z,18.08
2023-04-23T07:49:22.336Z,18.06
2023-04-23T07:50:54.384Z,18.05
2023-04-23T07:52:26.172Z,18.08
2023-04-23T07:53:58.590Z,18.07
2023-04-23T07:55:30.397Z,18.08
2023-04-23T07:57:03.194Z,18.08
2023-04-23T07:58:35.675Z,18.18
2023-04-23T08:00:11.570Z,18.27
2023-04-23T08:01:46.488Z,18.38
2023-04-23T08:03:18.496Z,18.47
2023-04-23T08:04:50.489Z,18.58
2023-04-23T08:06:23.694Z,18.68
2023-04-23T08:07:55.494Z,18.79
2023-04-23T08:09:27.340Z,18.89
2023-04-23T08:10:59.288Z,19.00
2023-04-23T08:12:31.366Z,19.10
2023-04-23T08:14:03.188Z,19.21
2023-04-23T08:15:35.202Z,19.33
2023-04-23T08:17:06.989Z,19.42
2023-04-23T08:18:39.054Z,19.55
2023-04-23T08:20:11.718Z,19.69
2023-04-23T08:21:43.586Z,19.84
2023-04-23T08:23:15.374Z,20.04
2023-04-23T08:24:47.242Z,20.25
2023-04-23T08:26:19.245Z,20.49
2023-04-23T08:27:51.242Z,20.76
2023-04-23T08:29:23.075Z,21.04
2023-04-23T08:30:55.006Z,21.30
2023-04-23T08:32:26.902Z,21.54
2023-04-23T08:33:59.496Z,21.77
2023-04-23T08:35:31.327Z,21.96
2023-04-23T08:37:03.305Z,22.13
2023-04-23T08:38:35.473Z,22.24
2023-04-23T08:40:07.994Z,22.30
2023-04-23T08:41:43.117Z,22.32
2023-04-23T08:43:21.089Z,22.33
2023-04-23T08:44:54.298Z,22.30
2023-04-23T08:46:31.387Z,22.22
2023-04-23T08:48:04.997Z,22.13
2023-04-23T08:49:41.868Z,22.03
2023-04-23T08:51:18.594Z,21.88
2023-04-23T08:52:53.636Z,21.73
2023-04-23T08:54:29.165Z,21.56
2023-04-23T08:56:01.225Z,21.41
2023-04-23T08:57:33.409Z,21.25
2023-04-23T08:59:06.859Z,21.07
2023-04-23T09:00:38.878Z,20.87
2023-04-23T09:02:11.165Z,20.69
2023-04-23T09:03:43.198Z,20.50
2023-04-23T09:05:15.741Z,20.31
2023-04-23T09:06:47.564Z,20.13
2023-04-23T09:08:21.476Z,19.97
2023-04-23T09:09:53.420Z,19.82
2023-04-23T09:11:28.484Z,19.71
2023-04-23T09:13:00.828Z,19.65
2023-04-23T09:14:33.132Z,19.65
2023-04-23T09:16:05.859Z,19.68
2023-04-23T09:17:43.360Z,19.75
2023-04-23T09:19:15.291Z,19.82
2023-04-23T09:20:47.637Z,19.88
2023-04-23T09:22:58.301Z,19.92
2023-04-23T09:24:31.054Z,20.01
2023-04-23T09:26:06.754Z,20.01
2023-04-23T09:27:39.475Z,20.02
2023-04-23T09:29:17.732Z,20.01
2023-04-23T09:30:49.582Z,20.01
2023-04-23T09:32:32.485Z,19.98
2023-04-23T09:34:04.317Z,20.00
2023-04-23T09:35:40.224Z,19.99
2023-04-23T09:37:14.949Z,19.96
2023-04-23T09:38:46.843Z,19.94
2023-04-23T09:40:25.031Z,19.93
2023-04-23T09:42:04.688Z,19.90
2023-04-23T09:43:36.480Z,19.86
2023-04-23T09:45:11.936Z,19.82
2023-04-23T09:46:44.757Z,19.76
2023-04-23T09:48:16.624Z,19.69
2023-04-23T09:49:49.439Z,19.63
2023-04-23T09:51:21.371Z,19.54
2023-04-23T09:52:56.802Z,19.46
2023-04-23T09:54:28.622Z,19.36
2023-04-23T09:56:00.524Z,19.28
2023-04-23T09:57:37.549Z,19.19
2023-04-23T09:59:36.123Z,19.12
2023-04-23T10:01:18.742Z,19.13
2023-04-23T10:02:52.319Z,19.13
2023-04-23T10:04:27.366Z,19.16
2023-04-23T10:06:01.945Z,19.19
2023-04-23T10:07:35.200Z,19.25
2023-04-23T10:09:07.075Z,19.29
2023-04-23T10:10:54.512Z,19.33
2023-04-23T10:12:46.496Z,19.37
2023-04-23T10:14:25.289Z,19.42
2023-04-23T10:16:04.693Z,19.46
2023-04-23T10:17:42.431Z,19.52
2023-04-23T10:19:15.367Z,19.56
2023-04-23T10:20:48.736Z,19.61
2023-04-23T10:22:22.021Z,19.66
2023-04-23T10:23:55.104Z,19.71
2023-04-23T10:25:28.330Z,19.80
2023-04-23T10:27:02.922Z,19.85
2023-04-23T10:28:36.329Z,19.90
2023-04-23T10:30:11.170Z,19.93
2023-04-23T10:31:43.372Z,19.94
2023-04-23T10:33:28.967Z,19.96
2023-04-23T10:35:02.678Z,19.95
2023-04-23T10:36:34.613Z,19.89
2023-04-23T10:38:06.978Z,19.86
2023-04-23T10:39:39.150Z,19.78
2023-04-23T10:41:11.921Z,19.70
2023-04-23T10:42:45.241Z,19.61
2023-04-23T10:44:17.632Z,19.51
2023-04-23T10:45:56.065Z,19.43
2023-04-23T10:47:27.945Z,19.33
2023-04-23T10:49:14.918Z,19.18
2023-04-23T10:51:05.770Z,19.13
2023-04-23T10:52:39.605Z,19.07
2023-04-23T10:54:14.835Z,19.02
2023-04-23T10:55:47.382Z,19.00
2023-04-23T10:57:19.441Z,18.97
2023-04-23T10:58:52.024Z,18.98
2023-04-23T11:00:24.152Z,19.00
2023-04-23T11:01:59.806Z,19.06
2023-04-23T11:03:33.204Z,19.14
2023-04-23T11:05:09.881Z,19.20
2023-04-23T11:06:47.509Z,19.26
2023-04-23T11:08:20.126Z,19.36
2023-04-23T11:09:54.072Z,19.43
2023-04-23T11:11:41.782Z,19.51
2023-04-23T11:13:27.120Z,19.60
2023-04-23T11:15:09.720Z,19.71
2023-04-23T11:16:41.580Z,19.81
2023-04-23T11:18:13.500Z,19.89
2023-04-23T11:20:04.334Z,19.97
2023-04-23T11:21:54.830Z,20.07
2023-04-23T11:23:33.174Z,20.17
2023-04-23T11:25:09.396Z,20.23
2023-04-23T11:26:42.995Z,20.24
2023-04-23T11:28:15.044Z,20.24
2023-04-23T11:29:48.035Z,20.23
2023-04-23T11:31:20.314Z,20.21
2023-04-23T11:32:54.717Z,20.18
2023-04-23T11:34:26.771Z,20.15
2023-04-23T11:35:58.729Z,20.13
2023-04-23T11:37:30.554Z,20.09
2023-04-23T11:39:03.310Z,20.09
2023-04-23T11:40:35.239Z,20.12
2023-04-23T11:42:11.311Z,20.20
2023-04-23T11:43:43.655Z,20.31
2023-04-23T11:45:20.519Z,20.47
2023-04-23T11:46:52.440Z,20.64
2023-04-23T11:48:24.257Z,20.84
2023-04-23T11:49:56.071Z,21.02
2023-04-23T11:51:28.145Z,21.19
2023-04-23T11:53:09.582Z,21.33
2023-04-23T11:54:42.675Z,21.48
2023-04-23T11:56:17.437Z,21.59
2023-04-23T11:57:50.982Z,21.70
2023-04-23T11:59:23.605Z,21.79
2023-04-23T12:00:59.948Z,21.82
2023-04-23T12:02:31.869Z,21.87
2023-04-23T12:04:11.104Z,21.86
2023-04-23T12:05:45.113Z,21.89
2023-04-23T12:07:25.831Z,21.90
2023-04-23T12:08:58.648Z,21.87
2023-04-23T12:10:30.477Z,21.83
2023-04-23T12:12:02.747Z,21.77
2023-04-23T12:13:34.634Z,21.72
2023-04-23T12:15:07.633Z,21.68
2023-04-23T12:16:41.530Z,21.60
2023-04-23T12:18:13.360Z,21.55
2023-04-23T12:19:45.461Z,21.50
2023-04-23T12:21:18.974Z,21.46
2023-04-23T12:22:50.809Z,21.43
2023-04-23T12:24:24.158Z,21.41
2023-04-23T12:25:56.276Z,21.41
2023-04-23T12:27:28.584Z,21.41
2023-04-23T12:29:00.474Z,21.40
2023-04-23T12:30:35.630Z,21.41
2023-04-23T12:32:11.515Z,21.41
2023-04-23T12:33:44.040Z,21.43
2023-04-23T12:35:15.911Z,21.45
2023-04-23T12:36:50.770Z,21.49
2023-04-23T12:38:27.714Z,21.53
2023-04-23T12:39:59.832Z,21.65
2023-04-23T12:41:33.439Z,21.75
2023-04-23T12:43:05.647Z,21.84
2023-04-23T12:44:38.809Z,21.94
2023-04-23T12:46:10.612Z,22.02
2023-04-23T12:47:42.471Z,22.11
2023-04-23T12:49:14.304Z,22.18
2023-04-23T12:50:46.950Z,22.22
2023-04-23T12:52:18.967Z,22.25
2023-04-23T12:53:51.437Z,22.26
2023-04-23T12:55:23.222Z,22.27
2023-04-23T12:56:55.880Z,22.27
2023-04-23T12:58:28.178Z,22.25
2023-04-23T13:00:00.031Z,22.23
2023-04-23T13:01:33.337Z,22.18
2023-04-23T13:03:05.288Z,22.16
2023-04-23T13:04:37.157Z,22.11
2023-04-23T13:06:08.945Z,22.08
2023-04-23T13:07:40.937Z,22.03
2023-04-23T13:09:13.016Z,21.99
2023-04-23T13:10:45.168Z,21.94
2023-04-23T13:12:16.992Z,21.90
2023-04-23T13:13:48.786Z,21.86
2023-04-23T13:15:20.701Z,21.83
2023-04-23T13:16:52.926Z,21.81
2023-04-23T13:18:25.103Z,21.82
2023-04-23T13:19:57.403Z,21.83
2023-04-23T13:21:29.209Z,21.86
2023-04-23T13:23:03.156Z,21.90
2023-04-23T13:24:35.179Z,21.93
2023-04-23T13:26:08.507Z,21.93
2023-04-23T13:27:41.040Z,21.95
2023-04-23T13:29:12.921Z,21.95
2023-04-23T13:30:44.726Z,21.93
2023-04-23T13:32:16.710Z,21.93
2023-04-23T13:33:48.494Z,21.95
2023-04-23T13:35:20.309Z,21.96
2023-04-23T13:36:52.126Z,21.97
2023-04-23T13:38:24.226Z,22.03
2023-04-23T13:39:56.171Z,22.08
2023-04-23T13:41:27.973Z,22.15
2023-04-23T13:42:59.804Z,22.24
2023-04-23T13:44:31.927Z,22.34
2023-04-23T13:46:04.066Z,22.45
2023-04-23T13:47:35.978Z,22.56
2023-04-23T13:49:07.893Z,22.69
2023-04-23T13:50:39.967Z,22.82
2023-04-23T13:52:11.788Z,22.95
2023-04-23T13:53:43.615Z,23.09
2023-04-23T13:55:15.513Z,23.26
2023-04-23T13:56:47.456Z,23.41
2023-04-23T13:58:19.444Z,23.61
2023-04-23T13:59:51.260Z,23.77
2023-04-23T14:01:23.166Z,23.93
2023-04-23T14:02:55.544Z,24.04
2023-04-23T14:04:27.480Z,24.10
2023-04-23T14:05:59.495Z,24.12
2023-04-23T14:07:31.342Z,24.11
2023-04-23T14:09:03.154Z,24.05
2023-04-23T14:10:35.600Z,24.00
2023-04-23T14:12:07.450Z,23.93
2023-04-23T14:13:39.374Z,23.83
2023-04-23T14:15:11.486Z,23.72
2023-04-23T14:16:43.292Z,23.61
2023-04-23T14:18:15.078Z,23.50
2023-04-23T14:19:47.502Z,23.40
2023-04-23T14:21:19.747Z,23.31
2023-04-23T14:23:02.935Z,23.20
2023-04-23T14:24:39.780Z,23.11
2023-04-23T14:26:22.644Z,23.01
2023-04-23T14:27:56.545Z,22.96
2023-04-23T14:29:50.690Z,22.84
2023-04-23T14:31:22.548Z,22.79
2023-04-23T14:32:56.667Z,22.68
2023-04-23T14:34:28.600Z,22.62
2023-04-23T14:36:00.424Z,22.53
2023-04-23T14:37:32.196Z,22.45
2023-04-23T14:39:05.637Z,22.40
2023-04-23T14:40:37.450Z,22.33
2023-04-23T14:42:09.687Z,22.28
2023-04-23T14:43:41.490Z,22.23
2023-04-23T14:45:14.336Z,22.17
2023-04-23T14:46:46.223Z,22.12
2023-04-23T14:48:18.057Z,22.08
2023-04-23T14:49:50.996Z,22.03
2023-04-23T14:51:23.128Z,21.99
2023-04-23T14:52:55.066Z,21.97
2023-04-23T14:54:26.902Z,21.95
2023-04-23T14:55:58.709Z,21.93
2023-04-23T14:57:31.204Z,21.93
2023-04-23T14:59:03.905Z,21.92
2023-04-23T15:00:36.015Z,21.92
2023-04-23T15:02:08.510Z,21.96
2023-04-23T15:03:40.814Z,22.04
2023-04-23T15:05:13.631Z,22.16
2023-04-23T15:06:45.445Z,22.34
2023-04-23T15:08:17.253Z,22.56
2023-04-23T15:09:49.069Z,22.83
2023-04-23T15:11:20.968Z,23.12
2023-04-23T15:13:02.268Z,23.42
2023-04-23T15:14:37.761Z,23.75
2023-04-23T15:16:25.717Z,24.02
2023-04-23T15:18:04.328Z,24.34
2023-04-23T15:19:36.247Z,24.54
2023-04-23T15:21:08.055Z,24.77
2023-04-23T15:22:39.887Z,24.98
2023-04-23T15:24:12.305Z,25.19
2023-04-23T15:25:44.133Z,25.41
2023-04-23T15:27:16.043Z,25.63
2023-04-23T15:28:48.466Z,25.84
2023-04-23T15:30:21.913Z,26.05
2023-04-23T15:31:58.484Z,26.28
2023-04-23T15:33:30.765Z,26.48
2023-04-23T15:35:02.734Z,26.67
2023-04-23T15:36:35.885Z,26.88
2023-04-23T15:38:07.692Z,27.04
2023-04-23T15:39:39.695Z,27.15
2023-04-23T15:41:12.690Z,27.27
2023-04-23T15:42:48.202Z,27.39
2023-04-23T15:44:20.029Z,27.47
2023-04-23T15:45:53.901Z,27.53
2023-04-23T15:47:25.930Z,27.61
2023-04-23T15:48:57.999Z,27.65
2023-04-23T15:50:29.848Z,27.68
2023-04-23T15:52:01.686Z,27.73
2023-04-23T15:53:33.500Z,27.74
2023-04-23T15:55:06.420Z,27.72
2023-04-23T15:56:38.234Z,27.66
2023-04-23T15:58:10.031Z,27.61
2023-04-23T15:59:42.150Z,27.52
2023-04-23T16:01:14.358Z,27.48
2023-04-23T16:02:46.345Z,27.39
2023-04-23T16:04:18.449Z,27.31
2023-04-23T16:05:51.234Z,27.23
2023-04-23T16:07:23.068Z,27.14
2023-04-23T16:08:54.868Z,27.02
2023-04-23T16:10:27.876Z,26.90
2023-04-23T16:11:59.877Z,26.73
2023-04-23T16:13:31.725Z,26.56
2023-04-23T16:15:04.641Z,26.35
2023-04-23T16:16:38.433Z,26.18
2023-04-23T16:18:10.357Z,26.03
2023-04-23T16:19:42.552Z,25.89
2023-04-23T16:21:14.625Z,25.66
2023-04-23T16:22:46.527Z,25.51
2023-04-23T16:24:19.282Z,25.31
2023-04-23T16:25:51.156Z,25.05
2023-04-23T16:27:23.648Z,24.78
2023-04-23T16:29:05.602Z,24.47
2023-04-23T16:30:43.466Z,24.17
2023-04-23T16:32:15.399Z,23.93
2023-04-23T16:33:47.201Z,23.63
2023-04-23T16:35:19.032Z,23.36
2023-04-23T16:36:50.832Z,23.08
2023-04-23T16:38:23.350Z,22.82
2023-04-23T16:39:55.145Z,22.53
2023-04-23T16:41:27.494Z,22.29
2023-04-23T16:42:59.638Z,22.03
2023-04-23T16:44:31.445Z,21.79
2023-04-23T16:46:03.373Z,21.55
2023-04-23T16:47:35.232Z,21.31
2023-04-23T16:49:07.141Z,21.08
2023-04-23T16:50:39.164Z,20.87
2023-04-23T16:52:11.306Z,20.67
2023-04-23T16:53:43.273Z,20.46
2023-04-23T16:55:15.291Z,20.27
2023-04-23T16:56:47.106Z,20.14
2023-04-23T16:58:19.046Z,19.99
2023-04-23T16:59:52.625Z,19.84
2023-04-23T17:01:24.710Z,19.72
2023-04-23T17:02:56.873Z,19.58
2023-04-23T17:04:28.898Z,19.47
2023-04-23T17:06:12.548Z,19.33
2023-04-23T17:07:44.507Z,19.27
2023-04-23T17:09:16.784Z,19.18
2023-04-23T17:10:48.602Z,19.08
2023-04-23T17:12:20.396Z,18.99
2023-04-23T17:13:52.294Z,18.91
2023-04-23T17:15:24.083Z,18.83
2023-04-23T17:16:56.426Z,18.76
2023-04-23T17:18:28.618Z,18.69
2023-04-23T17:20:00.495Z,18.62
2023-04-23T17:21:32.652Z,18.53
2023-04-23T17:23:04.478Z,18.46
2023-04-23T17:24:37.749Z,18.37
2023-04-23T17:26:10.954Z,18.28
2023-04-23T17:27:42.816Z,18.22
2023-04-23T17:29:14.617Z,18.13
2023-04-23T17:30:50.399Z,18.02
2023-04-23T17:32:22.611Z,17.92
2023-04-23T17:33:56.357Z,17.82
2023-04-23T17:35:28.180Z,17.73
2023-04-23T17:37:00.008Z,17.64
2023-04-23T17:38:31.851Z,17.53
2023-04-23T17:40:07.134Z,17.44
2023-04-23T17:41:39.123Z,17.33
2023-04-23T17:43:10.967Z,17.23
2023-04-23T17:44:43.942Z,17.13
2023-04-23T17:46:16.366Z,17.03
2023-04-23T17:47:48.263Z,16.92
2023-04-23T17:49:20.163Z,16.83
2023-04-23T17:50:52.048Z,16.72
2023-04-23T17:52:23.913Z,16.63
2023-04-23T17:53:55.756Z,16.52
2023-04-23T17:55:27.910Z,16.43
2023-04-23T17:56:59.709Z,16.34
2023-04-23T17:58:31.555Z,16.26
2023-04-23T18:00:09.842Z,16.20
2023-04-23T18:01:44.865Z,16.12
2023-04-23T18:03:18.714Z,16.04
2023-04-23T18:04:50.702Z,15.98
2023-04-23T18:06:23.094Z,15.89
2023-04-23T18:07:55.195Z,15.85
2023-04-23T18:09:27.206Z,15.78
2023-04-23T18:11:00.606Z,15.73
2023-04-23T18:12:32.784Z,15.66
2023-04-23T18:14:04.651Z,15.60
2023-04-23T18:15:36.885Z,15.57
2023-04-23T18:17:08.694Z,15.53
2023-04-23T18:18:40.567Z,15.49
2023-04-23T18:20:13.590Z,15.43
2023-04-23T18:21:46.118Z,15.38
2023-04-23T18:23:20.721Z,15.36
2023-04-23T18:24:52.749Z,15.33
2023-04-23T18:26:24.620Z,15.28
2023-04-23T18:27:56.572Z,15.20
2023-04-23T18:29:31.284Z,15.18
2023-04-23T18:31:04.328Z,15.15
2023-04-23T18:32:40.640Z,15.14
2023-04-23T18:34:18.285Z,15.15
2023-04-23T18:35:52.609Z,15.14
2023-04-23T18:37:42.047Z,15.10
2023-04-23T18:39:13.915Z,15.13
2023-04-23T18:40:45.858Z,15.14
2023-04-23T18:42:17.635Z,15.12
2023-04-23T18:43:49.497Z,15.12
2023-04-23T18:45:21.271Z,15.14
2023-04-23T18:46:53.506Z,15.15
2023-04-23T18:48:34.488Z,15.11
2023-04-23T18:50:14.026Z,15.14
2023-04-23T18:51:51.252Z,15.12
2023-04-23T18:53:23.130Z,15.12
2023-04-23T18:54:54.986Z,15.11
2023-04-23T18:56:27.000Z,15.10
2023-04-23T18:57:59.142Z,15.05
2023-04-23T18:59:35.318Z,15.03
2023-04-23T19:01:07.357Z,14.99
2023-04-23T19:02:39.292Z,14.94
2023-04-23T19:04:11.449Z,14.90
2023-04-23T19:05:43.442Z,14.86
2023-04-23T19:07:15.341Z,14.81
2023-04-23T19:08:47.192Z,14.76
2023-04-23T19:10:20.409Z,14.72
2023-04-23T19:11:52.678Z,14.67
2023-04-23T19:13:24.634Z,14.62
2023-04-23T19:14:56.746Z,14.57
2023-04-23T19:16:28.690Z,14.54
2023-04-23T19:18:00.836Z,14.49
2023-04-23T19:19:35.417Z,14.43
2023-04-23T19:21:07.270Z,14.38
2023-04-23T19:22:41.865Z,14.32
2023-04-23T19:24:14.094Z,14.25
2023-04-23T19:25:46.079Z,14.20
2023-04-23T19:27:17.886Z,14.13
2023-04-23T19:28:49.688Z,14.05
2023-04-23T19:30:21.514Z,14.00
2023-04-23T19:31:53.365Z,13.94
2023-04-23T19:33:25.264Z,13.87
2023-04-23T19:34:57.281Z,13.83
2023-04-23T19:36:29.141Z,13.74
2023-04-23T19:38:00.970Z,13.68
2023-04-23T19:39:32.784Z,13.59
2023-04-23T19:41:04.586Z,13.51
2023-04-23T19:42:36.971Z,13.45
2023-04-23T19:44:08.788Z,13.38
2023-04-23T19:45:40.649Z,13.32
2023-04-23T19:47:12.547Z,13.24
2023-04-23T19:48:44.417Z,13.16
2023-04-23T19:50:16.809Z,13.09
2023-04-23T19:51:49.796Z,13.00
2023-04-23T19:53:21.861Z,12.94
2023-04-23T19:54:53.741Z,12.87
2023-04-23T19:56:25.715Z,12.79
2023-04-23T19:57:58.716Z,12.73
2023-04-23T19:59:30.518Z,12.68
2023-04-23T20:01:02.337Z,12.61